createdAt,value
2022-08-19T04:00:45.275Z,9.63
2022-08-19T04:03:11.811Z,10.55
2022-08-19T04:05:38.397Z,11.10
2022-08-19T04:08:05.410Z,11.80
2022-08-19T04:10:32.613Z,11.38
2022-08-19T04:12:59.151Z,15.30
2022-08-19T04:15:25.700Z,12.25
2022-08-19T04:17:52.227Z,10.85
2022-08-19T04:20:18.778Z,12.32
2022-08-19T04:22:45.312Z,13.45
2022-08-19T04:25:11.824Z,12.07
2022-08-19T04:27:38.403Z,11.68
2022-08-19T04:30:05.341Z,11.18
2022-08-19T04:32:31.980Z,11.82
2022-08-19T04:35:02.482Z,13.38
2022-08-19T04:37:44.923Z,12.40
2022-08-19T04:40:12.113Z,13.40
2022-08-19T04:42:38.708Z,13.82
2022-08-19T04:45:11.397Z,10.88
2022-08-19T04:47:49.230Z,13.45
2022-08-19T04:50:26.655Z,13.07
2022-08-19T04:52:53.217Z,12.55
2022-08-19T04:55:19.929Z,8.35
2022-08-19T04:57:46.495Z,8.40
2022-08-19T05:00:13.377Z,12.40
2022-08-19T05:02:39.905Z,13.98
2022-08-19T05:05:06.634Z,12.88
2022-08-19T05:07:33.300Z,13.57
2022-08-19T05:09:59.909Z,12.68
2022-08-19T05:12:29.248Z,14.15
2022-08-19T05:14:56.639Z,14.48
2022-08-19T05:17:27.477Z,14.30
2022-08-19T05:19:55.779Z,12.23
2022-08-19T05:22:22.316Z,13.23
2022-08-19T05:25:11.356Z,14.13
2022-08-19T05:27:35.324Z,14.35
2022-08-19T05:30:01.847Z,14.82
2022-08-19T05:33:23.409Z,15.27
2022-08-19T05:35:49.958Z,14.45
2022-08-19T05:38:17.896Z,14.00
2022-08-19T05:40:44.517Z,16.88
2022-08-19T05:43:11.042Z,10.65
2022-08-19T05:45:40.940Z,9.88
2022-08-19T05:48:07.492Z,10.52
2022-08-19T05:50:34.074Z,10.13
2022-08-19T05:53:00.601Z,14.80
2022-08-19T05:55:27.135Z,14.20
2022-08-19T05:57:53.833Z,13.27
2022-08-19T06:00:24.558Z,13.93
2022-08-19T06:02:51.708Z,16.10
2022-08-19T06:05:18.375Z,10.55
2022-08-19T06:07:44.916Z,12.77
2022-08-19T06:10:11.803Z,14.90
2022-08-19T06:12:38.361Z,10.00
2022-08-19T06:15:10.670Z,14.43
2022-08-19T06:17:37.263Z,9.63
2022-08-19T06:20:08.240Z,9.82
2022-08-19T06:22:42.452Z,12.30
2022-08-19T06:25:09.487Z,13.37
2022-08-19T06:27:36.703Z,11.65
2022-08-19T06:30:05.336Z,10.40
2022-08-19T06:32:31.940Z,12.18
2022-08-19T06:34:58.500Z,10.05
2022-08-19T06:37:25.020Z,9.82
2022-08-19T06:39:51.840Z,9.68
2022-08-19T06:42:18.575Z,13.32
2022-08-19T06:44:49.129Z,15.73
2022-08-19T06:47:23.698Z,10.45
2022-08-19T06:50:01.313Z,11.43
2022-08-19T06:52:36.555Z,9.38
2022-08-19T06:55:06.224Z,8.80
2022-08-19T06:57:33.350Z,8.50
2022-08-19T06:59:59.968Z,9.18
2022-08-19T07:02:26.766Z,10.10
2022-08-19T07:04:53.624Z,8.80
2022-08-19T07:07:21.603Z,9.75
2022-08-19T07:10:00.042Z,10.27
2022-08-19T07:12:32.364Z,10.93
2022-08-19T07:14:59.229Z,8.90
2022-08-19T07:17:26.215Z,10.10
2022-08-19T07:19:54.345Z,10.15
2022-08-19T07:22:21.361Z,8.95
2022-08-19T07:24:51.223Z,9.95
2022-08-19T07:27:18.380Z,11.23
2022-08-19T07:29:57.425Z,8.88
2022-08-19T07:32:26.312Z,10.30
2022-08-19T07:34:52.959Z,8.75
2022-08-19T07:37:19.570Z,8.35
2022-08-19T07:39:46.276Z,7.30
2022-08-19T07:42:13.442Z,9.07
2022-08-19T07:47:07.846Z,7.53
2022-08-19T07:49:54.351Z,8.48
2022-08-19T07:52:20.965Z,8.30
2022-08-19T07:54:47.629Z,7.75
2022-08-19T07:57:14.233Z,7.72
2022-08-19T07:59:40.843Z,9.02
2022-08-19T08:02:07.636Z,8.93
2022-08-19T08:04:34.303Z,7.35
2022-08-19T08:07:00.979Z,7.05
2022-08-19T08:09:35.542Z,7.32
2022-08-19T08:15:02.766Z,5.87
2022-08-19T08:17:31.079Z,6.55
2022-08-19T08:20:15.597Z,6.57
2022-08-19T08:22:45.883Z,5.82
2022-08-19T08:25:17.565Z,5.82
2022-08-19T08:27:45.063Z,5.93
2022-08-19T08:30:17.705Z,5.60
2022-08-19T08:32:45.391Z,5.55
2022-08-19T08:35:13.959Z,5.10
2022-08-19T08:37:40.577Z,6.45
2022-08-19T08:40:27.248Z,5.60
2022-08-19T08:43:10.737Z,5.03
2022-08-19T08:45:42.912Z,5.25
2022-08-19T08:48:25.917Z,5.50
2022-08-19T08:50:53.042Z,5.38
2022-08-19T08:53:29.157Z,5.60
2022-08-19T08:55:57.114Z,5.30
2022-08-19T08:58:51.458Z,4.65
2022-08-19T09:01:21.180Z,4.00
2022-08-19T09:03:47.814Z,4.85
2022-08-19T09:06:33.119Z,6.30
2022-08-19T09:09:04.766Z,4.43
2022-08-19T09:12:11.800Z,6.72
2022-08-19T09:14:50.247Z,4.60
2022-08-19T09:17:18.918Z,4.20
2022-08-19T09:20:09.254Z,4.65
2022-08-19T09:22:37.449Z,5.43
2022-08-19T09:25:05.124Z,5.60
2022-08-19T09:27:42.462Z,5.47
2022-08-19T09:30:24.363Z,4.88
2022-08-19T09:32:53.117Z,4.90
2022-08-19T09:35:21.020Z,4.35
2022-08-19T09:37:47.761Z,4.35
2022-08-19T09:40:15.352Z,4.82
2022-08-19T09:42:49.669Z,4.45
2022-08-19T09:45:18.402Z,3.90
2022-08-19T09:47:45.227Z,4.88
2022-08-19T09:50:16.572Z,6.00
2022-08-19T09:52:54.143Z,4.57
2022-08-19T09:55:24.529Z,4.32
2022-08-19T09:58:00.113Z,4.65
2022-08-19T10:00:26.848Z,5.10
2022-08-19T10:02:53.703Z,5.30
2022-08-19T10:05:26.670Z,4.75
2022-08-19T10:07:53.913Z,6.68
2022-08-19T10:10:23.798Z,4.55
2022-08-19T10:12:51.561Z,5.15
2022-08-19T10:15:18.488Z,5.80
2022-08-19T10:17:56.186Z,4.88
2022-08-19T10:20:23.355Z,4.85
2022-08-19T10:22:51.841Z,3.92
2022-08-19T10:25:20.336Z,4.28
2022-08-19T10:27:51.402Z,4.18
2022-08-19T10:30:22.826Z,5.13
2022-08-19T10:32:53.887Z,5.25
2022-08-19T10:35:21.158Z,4.93
2022-08-19T10:37:56.794Z,4.43
2022-08-19T10:40:24.550Z,4.72
2022-08-19T10:42:51.247Z,5.30
2022-08-19T10:45:18.015Z,4.55
2022-08-19T10:47:44.710Z,5.88
2022-08-19T10:50:12.012Z,4.03
2022-08-19T10:52:49.910Z,5.10
2022-08-19T10:55:18.165Z,4.53
2022-08-19T10:58:01.926Z,5.07
2022-08-19T11:00:29.405Z,5.50
2022-08-19T11:02:56.116Z,4.93
2022-08-19T11:05:24.474Z,4.70
2022-08-19T11:07:51.338Z,4.68
2022-08-19T11:10:21.408Z,4.68
2022-08-19T11:12:48.579Z,5.25
2022-08-19T11:15:15.916Z,5.32
2022-08-19T11:17:42.545Z,5.38
2022-08-19T11:20:10.053Z,5.43
2022-08-19T11:22:41.431Z,5.07
2022-08-19T11:25:10.756Z,5.28
2022-08-19T11:27:43.948Z,5.35
2022-08-19T11:30:13.692Z,5.20
2022-08-19T11:32:47.290Z,4.60
2022-08-19T11:35:16.507Z,6.53
2022-08-19T11:37:43.257Z,5.00
2022-08-19T11:40:10.982Z,4.47
2022-08-19T11:42:37.956Z,5.15
2022-08-19T11:45:04.960Z,5.63
2022-08-19T11:47:31.899Z,5.85
2022-08-19T11:49:58.838Z,4.82
2022-08-19T11:52:25.548Z,5.40
2022-08-19T11:54:52.171Z,5.05
2022-08-19T11:57:18.820Z,5.28
2022-08-19T11:59:50.154Z,4.35
2022-08-19T12:02:16.897Z,5.93
2022-08-19T12:04:43.485Z,4.60
2022-08-19T12:07:10.212Z,4.78
2022-08-19T12:09:36.973Z,4.38
2022-08-19T12:12:09.164Z,5.60
2022-08-19T12:14:35.894Z,5.45
2022-08-19T12:17:02.705Z,4.65
2022-08-19T12:19:29.378Z,5.38
2022-08-19T12:21:59.790Z,5.45
2022-08-19T12:24:26.374Z,4.82
2022-08-19T12:26:53.966Z,3.83
2022-08-19T12:29:23.864Z,4.38
2022-08-19T12:31:51.561Z,5.00
2022-08-19T12:34:18.277Z,4.50
2022-08-19T12:36:45.047Z,4.82
2022-08-19T12:39:11.708Z,3.67
2022-08-19T12:41:43.430Z,4.07
2022-08-19T12:44:21.683Z,4.28
2022-08-19T12:46:59.436Z,4.53
2022-08-19T12:49:53.068Z,5.32
2022-08-19T12:52:12.758Z,4.60
2022-08-19T12:54:40.951Z,4.63
2022-08-19T12:57:08.405Z,4.38
2022-08-19T12:59:36.319Z,4.60
2022-08-19T13:02:04.321Z,4.72
2022-08-19T13:04:31.064Z,4.97
2022-08-19T13:06:57.645Z,5.07
2022-08-19T13:09:24.325Z,5.47
2022-08-19T13:11:50.910Z,4.68
2022-08-19T13:14:17.770Z,3.92
2022-08-19T13:16:44.483Z,4.20
2022-08-19T13:19:11.093Z,5.00
2022-08-19T13:21:37.717Z,5.68
2022-08-19T13:24:04.617Z,4.82
2022-08-19T13:26:31.278Z,5.50
2022-08-19T13:28:57.885Z,4.70
2022-08-19T13:31:25.477Z,5.10
2022-08-19T13:33:52.165Z,5.03
2022-08-19T13:36:18.856Z,4.05
2022-08-19T13:38:45.457Z,4.38
2022-08-19T13:41:14.754Z,4.70
2022-08-19T13:43:41.556Z,4.50
2022-08-19T13:46:11.693Z,4.05
2022-08-19T13:48:38.364Z,4.15
2022-08-19T13:51:05.974Z,4.15
2022-08-19T13:53:32.565Z,4.35
2022-08-19T13:55:59.138Z,8.15
2022-08-19T13:58:25.783Z,4.13
2022-08-19T14:00:52.551Z,4.68
2022-08-19T14:03:19.245Z,3.78
2022-08-19T14:05:45.976Z,3.55
2022-08-19T14:08:12.636Z,4.40
2022-08-19T14:10:39.313Z,4.65
2022-08-19T14:13:05.933Z,4.50
2022-08-19T14:15:32.578Z,5.72
2022-08-19T14:17:59.357Z,6.13
2022-08-19T14:20:26.462Z,6.40
2022-08-19T14:22:53.471Z,5.45
2022-08-19T14:25:22.771Z,7.18
2022-08-19T14:27:49.534Z,5.47
2022-08-19T14:30:18.838Z,6.38
2022-08-19T14:32:45.541Z,6.07
2022-08-19T14:35:13.220Z,7.03
2022-08-19T14:37:45.485Z,7.00
2022-08-19T14:40:13.897Z,5.22
2022-08-19T14:42:40.901Z,4.47
2022-08-19T14:45:08.218Z,4.82
2022-08-19T14:47:34.848Z,4.70
2022-08-19T14:50:01.702Z,4.40
2022-08-19T14:52:31.872Z,4.53
2022-08-19T14:54:58.447Z,5.35
2022-08-19T14:57:25.066Z,7.57
2022-08-19T14:59:51.682Z,4.70
2022-08-19T15:02:20.426Z,5.72
2022-08-19T15:05:01.985Z,5.53
2022-08-19T15:07:29.195Z,4.82
2022-08-19T15:09:56.617Z,5.78
2022-08-19T15:12:23.193Z,4.85
2022-08-19T15:14:49.795Z,4.35
2022-08-19T15:17:18.689Z,6.18
2022-08-19T15:19:45.436Z,6.75
2022-08-19T15:22:12.194Z,4.43
2022-08-19T15:24:47.824Z,6.35
2022-08-19T15:27:14.902Z,5.65
2022-08-19T15:29:41.552Z,7.90
2022-08-19T15:32:08.388Z,4.78
2022-08-19T15:34:34.999Z,6.43
2022-08-19T15:37:01.933Z,6.00
2022-08-19T15:39:28.475Z,4.93
2022-08-19T15:41:55.203Z,7.45
2022-08-19T15:44:21.851Z,7.65
2022-08-19T15:46:48.729Z,5.88
2022-08-19T15:49:16.654Z,4.90
2022-08-19T15:51:44.881Z,5.10
2022-08-19T15:54:15.028Z,6.43
2022-08-19T15:56:41.755Z,5.05
2022-08-19T15:59:11.820Z,6.32
2022-08-19T16:01:40.987Z,6.88
2022-08-19T16:04:11.009Z,6.75
2022-08-19T16:06:46.330Z,5.85
2022-08-19T16:09:13.164Z,6.40
2022-08-19T16:11:45.226Z,6.18
2022-08-19T16:14:13.036Z,6.88
2022-08-19T16:16:39.727Z,6.10
2022-08-19T16:19:10.363Z,8.82
2022-08-19T16:21:38.486Z,7.50
2022-08-19T16:24:08.196Z,6.25
2022-08-19T16:26:34.969Z,5.75
2022-08-19T16:29:02.117Z,6.00
2022-08-19T16:31:28.857Z,6.00
2022-08-19T16:33:55.632Z,6.38
2022-08-19T16:36:22.299Z,5.15
2022-08-19T16:38:48.901Z,5.63
2022-08-19T16:41:15.462Z,5.47
2022-08-19T16:43:42.104Z,5.68
2022-08-19T16:46:08.779Z,5.22
2022-08-19T16:48:35.695Z,5.80
2022-08-19T16:51:02.413Z,5.35
2022-08-19T16:53:31.995Z,4.63
2022-08-19T16:55:59.212Z,4.90
2022-08-19T16:58:28.158Z,5.93
2022-08-19T17:00:56.652Z,4.70
2022-08-19T17:03:27.847Z,4.68
2022-08-19T17:06:03.434Z,4.07
2022-08-19T17:08:33.239Z,3.78
2022-08-19T17:11:16.994Z,4.22
2022-08-19T17:13:44.662Z,4.23
2022-08-19T17:16:14.508Z,4.70
2022-08-19T17:18:41.225Z,5.47
2022-08-19T17:21:07.807Z,6.10
2022-08-19T17:23:42.315Z,4.90
2022-08-19T17:26:15.807Z,5.18
2022-08-19T17:28:45.090Z,9.05
2022-08-19T17:31:11.779Z,4.72
2022-08-19T17:33:41.318Z,5.47
2022-08-19T17:36:08.480Z,5.10
2022-08-19T17:38:35.263Z,6.22
2022-08-19T17:41:01.844Z,4.70
2022-08-19T17:43:34.092Z,5.15
2022-08-19T17:46:03.287Z,5.20
2022-08-19T17:48:33.755Z,5.35
2022-08-19T17:51:00.384Z,5.60
2022-08-19T17:53:26.919Z,5.10
2022-08-19T17:55:53.551Z,5.13
2022-08-19T17:58:20.511Z,4.30
2022-08-19T18:00:53.336Z,4.53
2022-08-19T18:03:20.856Z,5.03
2022-08-19T18:05:47.488Z,3.72
2022-08-19T18:08:14.086Z,3.20
2022-08-19T18:10:40.781Z,2.60
2022-08-19T18:13:17.417Z,4.15
2022-08-19T18:15:44.535Z,1.60
2022-08-19T18:18:15.191Z,1.88
2022-08-19T18:20:43.125Z,2.15
2022-08-19T18:23:41.389Z,2.30
2022-08-19T18:25:56.499Z,5.85
2022-08-19T18:28:23.068Z,2.95
2022-08-19T18:30:49.592Z,2.13
2022-08-19T18:33:16.254Z,1.75
2022-08-19T18:35:44.917Z,1.60
2022-08-19T18:38:12.898Z,1.23
2022-08-19T18:40:39.484Z,1.75
2022-08-19T18:43:06.111Z,2.17
2022-08-19T18:45:32.698Z,4.38
2022-08-19T18:47:59.300Z,1.60
2022-08-19T18:50:25.961Z,1.88
2022-08-19T18:52:52.635Z,1.38
2022-08-19T18:55:19.339Z,2.03
2022-08-19T18:57:46.028Z,2.72
2022-08-19T19:00:13.397Z,2.22
2022-08-19T19:02:40.143Z,3.55
2022-08-19T19:05:07.473Z,1.73
2022-08-19T19:07:34.761Z,1.60
2022-08-19T19:10:01.424Z,2.53
2022-08-19T19:12:28.019Z,1.77
2022-08-19T19:14:54.599Z,2.40
2022-08-19T19:17:21.198Z,2.15
2022-08-19T19:19:47.882Z,2.63
2022-08-19T19:22:17.255Z,2.67
2022-08-19T19:24:43.879Z,3.90
2022-08-19T19:27:10.804Z,2.80
2022-08-19T19:29:37.351Z,3.10
2022-08-19T19:32:05.812Z,3.72
2022-08-19T19:34:32.375Z,3.85
2022-08-19T19:36:59.081Z,2.55
2022-08-19T19:39:30.723Z,3.90
2022-08-19T19:42:19.666Z,2.80
2022-08-19T19:44:47.402Z,2.85
2022-08-19T19:47:14.561Z,3.03
2022-08-19T19:49:57.898Z,3.65
2022-08-19T19:52:28.106Z,2.63
2022-08-19T19:54:54.858Z,2.55
2022-08-19T19:57:21.460Z,2.72
2022-08-19T19:59:51.728Z,2.40
2022-08-19T20:02:18.451Z,2.28
2022-08-19T20:04:45.101Z,2.90
2022-08-19T20:07:11.828Z,2.92
2022-08-19T20:09:58.419Z,2.78
2022-08-19T20:12:25.058Z,2.65
2022-08-19T20:14:51.630Z,3.22
2022-08-19T20:17:18.222Z,2.67
2022-08-19T20:19:44.922Z,4.70
2022-08-19T20:22:11.457Z,3.38
2022-08-19T20:24:38.108Z,3.08
2022-08-19T20:27:05.093Z,2.80
2022-08-19T20:29:38.738Z,4.25
2022-08-19T20:32:07.171Z,2.22
2022-08-19T20:34:33.755Z,6.97
2022-08-19T20:37:00.364Z,2.88
2022-08-19T20:39:29.293Z,3.47
2022-08-19T20:41:56.024Z,3.35
2022-08-19T20:44:22.685Z,3.00
2022-08-19T20:46:55.403Z,3.00
2022-08-19T20:49:27.260Z,2.50
2022-08-19T20:51:55.482Z,4.05
2022-08-19T20:54:22.057Z,3.20
2022-08-19T20:56:48.685Z,2.92
2022-08-19T20:59:15.547Z,2.80
2022-08-19T21:01:42.670Z,2.92
2022-08-19T21:04:11.548Z,2.83
2022-08-19T21:06:38.547Z,4.53
2022-08-19T21:09:05.643Z,3.20
2022-08-19T21:11:32.511Z,3.72
2022-08-19T21:13:59.604Z,2.78
2022-08-19T21:16:26.661Z,2.65
2022-08-19T21:18:53.415Z,2.78
2022-08-19T21:21:20.319Z,3.40
2022-08-19T21:23:50.032Z,2.60
2022-08-19T21:26:16.937Z,3.03
2022-08-19T21:28:43.748Z,2.72
2022-08-19T21:31:10.556Z,2.92
2022-08-19T21:33:37.835Z,2.72
2022-08-19T21:36:04.811Z,3.03
2022-08-19T21:38:31.589Z,3.42
2022-08-19T21:40:58.286Z,2.42
2022-08-19T21:43:25.580Z,2.60
2022-08-19T21:49:58.699Z,2.65
2022-08-19T21:52:26.516Z,3.53
2022-08-19T21:54:53.295Z,2.53
2022-08-19T21:57:19.968Z,2.60
2022-08-19T21:59:46.604Z,3.05
2022-08-19T22:02:21.523Z,2.40
2022-08-19T22:07:18.873Z,2.45
2022-08-19T22:09:45.772Z,2.10
2022-08-19T22:12:23.497Z,2.50
2022-08-19T22:14:50.601Z,2.20
2022-08-19T22:17:17.701Z,2.80
2022-08-19T22:19:44.363Z,2.80
2022-08-19T22:22:11.223Z,2.63
2022-08-19T22:24:40.587Z,2.30
2022-08-19T22:27:08.532Z,2.67
2022-08-19T22:29:35.581Z,3.30
2022-08-19T22:32:26.756Z,3.65
2022-08-19T22:34:51.124Z,2.45
2022-08-19T22:37:17.661Z,2.40
2022-08-19T22:39:44.346Z,3.65
2022-08-19T22:42:10.999Z,3.88
2022-08-19T22:44:37.591Z,2.53
2022-08-19T22:47:04.313Z,2.72
2022-08-19T22:49:30.880Z,2.85
2022-08-19T22:51:57.699Z,2.80
2022-08-19T22:54:24.373Z,2.25
2022-08-19T22:56:50.992Z,2.28
2022-08-19T22:59:18.070Z,2.22
2022-08-19T23:01:44.694Z,2.42
2022-08-19T23:04:11.365Z,3.95
2022-08-19T23:06:41.434Z,2.58
2022-08-19T23:09:08.918Z,2.05
2022-08-19T23:11:41.691Z,2.40
2022-08-19T23:14:09.210Z,2.00
2022-08-19T23:16:35.832Z,2.53
2022-08-19T23:19:02.821Z,2.38
2022-08-19T23:21:29.604Z,2.30
2022-08-19T23:23:56.265Z,2.40
2022-08-19T23:26:22.957Z,4.57
2022-08-19T23:28:49.584Z,2.42
2022-08-19T23:31:16.277Z,2.20
2022-08-19T23:33:50.613Z,2.45
2022-08-19T23:36:29.709Z,6.15
2022-08-19T23:38:56.350Z,1.98
2022-08-19T23:41:22.974Z,2.17
2022-08-19T23:43:51.435Z,2.08
2022-08-19T23:46:42.202Z,1.92
2022-08-19T23:49:20.921Z,1.60
2022-08-19T23:51:47.652Z,1.92
2022-08-19T23:54:14.271Z,3.45
2022-08-19T23:56:40.889Z,1.67
2022-08-19T23:59:07.547Z,2.25
